KBRO/BRO METAR and TAF weather

Enter ICAO airport designator
Station Type Date Time Source
KBRO METAR 2022/12/04 04:23 UTC NOAA

KBRO 040423Z 03004KT 6SM BR FEW008 SCT023 BKN031 22/22 A3027 RMK AO2 T02170217


Station Type Date Time Source
KBRO Decoded METAR 2022/12/04 04:23 UTC NOAA

BROWNSVILLE/SOUTH PADRE IS, TX, United States (KBRO) 25-54N 97-25W 5M
Dec 03, 2022 - 11:23 PM EST / 2022.12.04 0423 UTC
Wind: from the NNE (030 degrees) at 5 MPH (4 KT):0
Visibility: 6 mile(s):0
Sky conditions: mostly cloudy
Weather: mist
Temperature: 71.1 F (21.7 C)
Dew Point: 71.1 F (21.7 C)
Relative Humidity: 100%
Pressure (altimeter): 30.27 in. Hg (1025 hPa)
ob: KBRO 040423Z 03004KT 6SM BR FEW008 SCT023 BKN031 22/22 A3027 RMK AO2 T02170217
cycle: 4

Station Type Date Time Source
KBRO TAF 2022/12/04 03:58 UTC NOAA

TAF
AMD KBRO 040257Z 0403/0424 VRB04KT 4SM BR SCT006
FM040500 VRB03KT 1SM BR BKN002
FM041500 02007KT 4SM BR BKN005
FM041600 03008KT P6SM BKN006
FM042300 07008KT P6SM SCT060

Example: see airport list